This is the latest recevied weather packets stored in our database for station/object HI3R-13. If no packets are shown the sender has not sent any weather packets the latest 10 day(s).
| Time | Temp. | Humidity | Pressure | Rain* | Wind** | Luminosity | Snow |
|---|---|---|---|---|---|---|---|
| 1777908617 | 30° C | 57% | 987 hPa | 0 mm | - | - | - |
| 1777907418 | 29.44° C | 60% | 987.1 hPa | 0 mm | - | - | - |
| 1777903237 | 28.33° C | 60% | 987.3 hPa | 0 mm | - | - | - |
| 1777896637 | 26.11° C | 69% | 987.1 hPa | 0 mm | - | - | - |
| 1777894217 | 24.44° C | 76% | 987.2 hPa | 0 mm | - | - | - |
| 1777887036 | 22.78° C | 86% | 986.4 hPa | 0 mm | - | - | - |
| 1777886416 | 22.78° C | 86% | 986.4 hPa | 0 mm | - | - | - |
| 1777884016 | 22.78° C | 86% | 986.3 hPa | 0 mm | - | - | - |
| 1777882216 | 23.33° C | 85% | 986.4 hPa | 0 mm | - | - | - |
| 1777879816 | 23.33° C | 84% | 986.5 hPa | 0 mm | - | - | - |
| 1777877416 | 23.33° C | 84% | 986.7 hPa | 0 mm | - | - | - |
| 1777873817 | 23.89° C | 83% | 987.1 hPa | 0 mm | - | - | - |
| 1777872018 | 23.89° C | 81% | 987.3 hPa | 0 mm | - | - | - |
| 1777867217 | 24.44° C | 78% | 988.2 hPa | 0 mm | - | - | - |
| 1777865416 | 25° C | 76% | 988.1 hPa | 0 mm | - | - | - |
| 1777861816 | 25.56° C | 70% | 987.8 hPa | 0 mm | - | - | - |
| 1777858816 | 26.11° C | 67% | 987.4 hPa | 0 mm | - | - | - |
| 1777855836 | 26.67° C | 63% | 986.5 hPa | 0 mm | - | - | - |
| 1777851017 | 28.33° C | 55% | 985.6 hPa | 0 mm | - | - | - |
| 1777845617 | 30.56° C | 50% | 985 hPa | 0 mm | - | - | - |
| 1777845017 | 30.56° C | 50% | 985 hPa | 0 mm | - | - | - |
| 1777842017 | 32.22° C | 44% | 984.9 hPa | 0 mm | - | - | - |
| 1777840817 | 31.67° C | 44% | 984.9 hPa | 0 mm | - | - | - |
| 1777839617 | 31.67° C | 48% | 985 hPa | 0 mm | - | - | - |
| 1777839017 | 31.67° C | 48% | 985.1 hPa | 0 mm | - | - | - |
* Rain latest hour (hover to see other rain measurements)
** Current wind speed in m/s (hover to see current wind gust speed)